Time;durP1;ratioP1;P1;durP2;ratioP2;P2;SDS_P1;SDS_P2;PMS_P1;PMS_P2;Temp;Humidity;BMP_temperature;BMP_pressure;BME280_temperature;BME280_humidity;BME280_pressure;Samples;Min_cycle;Max_cycle;Signal;HPM_P1;HPM_P2
2023/10/25 00:01:57;;;;;;;15.63;14.17;;;13.60;1.00;;;;;;5147811;27;21332;-70
2023/10/25 00:04:24;;;;;;;15.07;13.77;;;13.70;1.00;;;;;;5152785;27;20457;-71
2023/10/25 00:06:51;;;;;;;15.00;13.70;;;13.70;1.00;;;;;;5141074;27;20462;-71
2023/10/25 00:09:19;;;;;;;14.90;13.50;;;13.70;1.00;;;;;;5147896;27;20475;-71
2023/10/25 00:11:46;;;;;;;13.83;12.50;;;13.70;1.00;;;;;;5140298;27;20462;-73
2023/10/25 00:14:13;;;;;;;15.73;14.23;;;13.70;1.00;;;;;;5131174;27;20466;-72
2023/10/25 00:16:41;;;;;;;14.20;12.93;;;13.70;1.00;;;;;;5140068;27;20892;-71
2023/10/25 00:19:10;;;;;;;13.43;12.00;;;13.70;1.00;;;;;;5139482;27;20448;-73
2023/10/25 00:21:37;;;;;;;13.70;12.40;;;13.60;1.00;;;;;;5130352;27;20456;-72
2023/10/25 00:24:04;;;;;;;14.40;11.90;;;13.50;1.00;;;;;;5131694;27;21840;-72
2023/10/25 00:26:33;;;;;;;14.93;13.00;;;13.60;1.00;;;;;;5144505;27;20491;-70
2023/10/25 00:29:00;;;;;;;14.67;13.07;;;13.60;1.00;;;;;;5130003;27;20572;-72
2023/10/25 00:31:27;;;;;;;13.70;12.30;;;13.60;1.00;;;;;;5129194;27;20540;-71
2023/10/25 00:33:53;;;;;;;12.97;11.67;;;13.60;1.00;;;;;;5130159;27;21696;-71
2023/10/25 00:36:20;;;;;;;12.97;11.70;;;13.50;1.00;;;;;;5128678;27;20468;-71
2023/10/25 00:38:48;;;;;;;14.43;12.63;;;13.50;1.00;;;;;;5126536;27;20973;-72
2023/10/25 00:41:16;;;;;;;15.20;11.87;;;13.40;1.00;;;;;;5127048;27;20458;-74
2023/10/25 00:43:44;;;;;;;13.50;12.20;;;13.40;1.00;;;;;;5135554;27;20943;-76
2023/10/25 00:46:12;;;;;;;13.27;11.87;;;13.40;1.00;;;;;;5130001;27;20463;-75
2023/10/25 00:48:43;;;;;;;12.20;11.00;;;13.40;1.00;;;;;;5128408;27;20474;-75
2023/10/25 00:51:12;;;;;;;12.63;11.43;;;13.30;1.00;;;;;;5140888;27;20461;-74
2023/10/25 00:53:42;;;;;;;13.00;11.50;;;13.30;1.00;;;;;;5137191;27;20438;-73
2023/10/25 00:56:11;;;;;;;11.80;10.57;;;13.30;1.00;;;;;;5129450;27;20664;-75
2023/10/25 00:58:42;;;;;;;12.83;11.53;;;13.30;1.00;;;;;;5136908;27;20464;-75
2023/10/25 01:01:11;;;;;;;11.33;10.23;;;13.30;1.00;;;;;;5127761;27;20446;-76
2023/10/25 01:03:38;;;;;;;12.60;11.40;;;13.30;1.00;;;;;;5124717;27;20847;-75
2023/10/25 01:06:06;;;;;;;12.07;10.97;;;13.30;1.00;;;;;;5131584;27;20543;-75
2023/10/25 01:08:34;;;;;;;12.43;11.33;;;13.30;1.00;;;;;;5129281;27;20473;-75
2023/10/25 01:11:01;;;;;;;13.80;12.40;;;13.30;1.00;;;;;;5130573;27;20486;-76
2023/10/25 01:13:28;;;;;;;11.80;10.70;;;13.30;1.00;;;;;;5127799;27;20520;-76
2023/10/25 01:15:55;;;;;;;11.77;10.67;;;13.20;1.00;;;;;;5131583;27;20933;-74
2023/10/25 01:18:24;;;;;;;10.50;9.47;;;13.20;1.00;;;;;;5128558;27;20477;-75
2023/10/25 01:20:51;;;;;;;10.80;9.80;;;13.10;1.00;;;;;;5131595;27;20547;-76
2023/10/25 01:23:19;;;;;;;10.63;9.67;;;13.00;1.00;;;;;;5129736;27;20548;-75
2023/10/25 01:25:46;;;;;;;11.37;10.37;;;13.00;1.00;;;;;;5128848;27;20510;-75
2023/10/25 01:28:14;;;;;;;10.27;9.37;;;12.90;1.00;;;;;;5131482;27;20519;-76
2023/10/25 01:30:41;;;;;;;9.80;8.90;;;12.80;1.00;;;;;;5128988;27;20535;-75
2023/10/25 01:33:08;;;;;;;10.27;9.43;;;12.80;1.00;;;;;;5129234;27;20462;-75
2023/10/25 01:35:36;;;;;;;10.40;9.40;;;12.80;1.00;;;;;;5130968;27;20490;-75
2023/10/25 01:38:03;;;;;;;11.67;10.50;;;12.70;1.00;;;;;;5129802;27;20560;-75
2023/10/25 01:40:31;;;;;;;9.37;8.63;;;12.70;1.00;;;;;;5129001;27;20455;-75
2023/10/25 01:42:58;;;;;;;10.53;9.53;;;12.70;1.00;;;;;;5130433;27;20470;-76
2023/10/25 01:45:27;;;;;;;10.30;9.30;;;12.70;1.00;;;;;;5130283;27;20479;-76
2023/10/25 01:47:54;;;;;;;9.80;8.90;;;12.70;1.00;;;;;;5129731;27;20474;-75
2023/10/25 01:50:21;;;;;;;9.70;8.80;;;12.80;1.00;;;;;;5130002;27;20509;-74
2023/10/25 01:52:48;;;;;;;9.33;8.50;;;12.80;1.00;;;;;;5127590;27;20493;-75
2023/10/25 01:55:15;;;;;;;9.87;9.07;;;12.80;1.00;;;;;;5133777;27;20544;-75
2023/10/25 01:57:44;;;;;;;9.03;8.20;;;12.80;1.00;;;;;;5145934;27;20848;-74
2023/10/25 02:00:12;;;;;;;9.80;9.00;;;12.80;1.00;;;;;;5146845;27;20486;-74
2023/10/25 02:02:39;;;;;;;10.07;9.27;;;12.90;1.00;;;;;;5144880;27;20453;-75
2023/10/25 02:05:06;;;;;;;10.60;9.60;;;12.90;1.00;;;;;;5151698;27;20445;-77
2023/10/25 02:07:34;;;;;;;10.70;9.80;;;12.80;1.00;;;;;;5134606;27;20470;-74
2023/10/25 02:10:01;;;;;;;12.33;10.60;;;12.80;1.00;;;;;;5137457;27;20451;-76
2023/10/25 02:12:28;;;;;;;11.70;10.50;;;12.90;1.00;;;;;;5151357;27;20993;-75
2023/10/25 02:14:59;;;;;;;11.80;10.77;;;12.80;1.00;;;;;;5151409;27;20492;-74
2023/10/25 02:17:26;;;;;;;12.37;11.27;;;12.80;1.00;;;;;;5151174;27;20478;-76
2023/10/25 02:19:52;;;;;;;11.97;10.87;;;12.80;1.00;;;;;;5148738;27;21054;-75
2023/10/25 02:22:19;;;;;;;13.50;12.27;;;12.70;1.00;;;;;;5150618;27;20455;-77
2023/10/25 02:24:47;;;;;;;13.47;12.17;;;12.70;1.00;;;;;;5141953;27;20555;-77
2023/10/25 02:27:14;;;;;;;12.80;11.60;;;12.60;1.00;;;;;;5146864;27;20474;-75
2023/10/25 02:29:41;;;;;;;14.50;13.10;;;12.70;1.00;;;;;;5127045;27;20477;-77
2023/10/25 02:32:10;;;;;;;14.00;12.67;;;12.70;1.00;;;;;;5129571;27;20454;-74
2023/10/25 02:34:37;;;;;;;13.50;12.10;;;12.70;1.00;;;;;;5124483;27;21105;-73
2023/10/25 02:37:04;;;;;;;14.37;12.40;;;12.70;1.00;;;;;;5125655;27;20474;-75
2023/10/25 02:39:31;;;;;;;15.27;13.80;;;12.70;1.00;;;;;;5143624;27;20981;-74
2023/10/25 02:41:58;;;;;;;15.43;14.00;;;12.70;1.00;;;;;;5132258;27;20462;-74
2023/10/25 02:44:25;;;;;;;15.70;14.10;;;12.80;1.00;;;;;;5130831;27;20461;-75
2023/10/25 02:46:52;;;;;;;14.27;12.97;;;12.80;1.00;;;;;;5127049;27;20539;-74
2023/10/25 02:49:21;;;;;;;16.50;14.83;;;12.80;1.00;;;;;;5132652;27;20559;-74
2023/10/25 02:51:48;;;;;;;16.80;14.93;;;12.80;1.00;;;;;;5147960;27;20519;-74
2023/10/25 02:54:14;;;;;;;16.93;15.27;;;12.90;1.00;;;;;;5142979;27;20447;-75
2023/10/25 02:56:41;;;;;;;17.33;15.67;;;12.90;1.00;;;;;;5129050;27;20493;-76
2023/10/25 02:59:08;;;;;;;19.60;17.80;;;12.90;1.00;;;;;;5131101;27;22119;-75
2023/10/25 03:01:35;;;;;;;19.37;17.10;;;12.80;1.00;;;;;;5135643;27;20542;-76
2023/10/25 03:04:03;;;;;;;20.67;18.50;;;12.90;1.00;;;;;;5132401;27;20466;-75
2023/10/25 03:06:31;;;;;;;18.87;16.97;;;12.90;1.00;;;;;;5125535;27;20532;-75
2023/10/25 03:08:58;;;;;;;21.73;17.73;;;12.80;1.00;;;;;;5128312;27;20590;-76
2023/10/25 03:11:25;;;;;;;20.23;18.13;;;12.80;1.00;;;;;;5143814;27;20520;-75
2023/10/25 03:13:54;;;;;;;21.97;19.67;;;12.70;1.00;;;;;;5156056;27;21081;-74
2023/10/25 03:16:24;;;;;;;26.00;19.57;;;12.70;1.00;;;;;;5140515;27;20453;-74
2023/10/25 03:18:51;;;;;;;22.13;19.60;;;12.70;1.00;;;;;;5144913;27;20538;-76
2023/10/25 03:21:20;;;;;;;22.77;20.40;;;12.80;1.00;;;;;;5126644;27;20499;-76
2023/10/25 03:23:50;;;;;;;23.53;20.73;;;12.80;1.00;;;;;;5132243;27;20469;-75
2023/10/25 03:26:16;;;;;;;22.97;20.60;;;12.80;1.00;;;;;;5143831;27;20989;-75
2023/10/25 03:28:43;;;;;;;22.13;19.63;;;12.80;1.00;;;;;;5135457;27;20450;-76
2023/10/25 03:31:11;;;;;;;24.07;20.97;;;12.80;1.00;;;;;;5135055;27;20455;-76
2023/10/25 03:33:38;;;;;;;22.50;20.40;;;12.80;1.00;;;;;;5136529;27;20502;-77
2023/10/25 03:36:05;;;;;;;22.93;20.40;;;12.90;1.00;;;;;;5134798;27;20551;-78
2023/10/25 03:38:33;;;;;;;21.23;19.13;;;12.90;1.00;;;;;;5135305;27;20538;-77
2023/10/25 03:41:04;;;;;;;21.03;18.90;;;12.90;1.00;;;;;;5138461;27;20471;-74
2023/10/25 03:43:31;;;;;;;19.47;17.57;;;13.00;1.00;;;;;;5141437;27;20592;-76
2023/10/25 03:46:02;;;;;;;21.83;19.63;;;13.00;1.00;;;;;;5143596;27;20461;-77
2023/10/25 03:48:30;;;;;;;21.57;19.33;;;12.90;1.00;;;;;;5137581;27;20446;-77
2023/10/25 03:50:58;;;;;;;21.20;19.20;;;12.90;1.00;;;;;;5133432;27;20491;-78
2023/10/25 03:53:25;;;;;;;20.10;18.17;;;12.90;1.00;;;;;;5143829;27;20932;-77
2023/10/25 03:55:56;;;;;;;21.67;19.57;;;12.80;1.00;;;;;;5144528;27;20834;-75
2023/10/25 03:58:25;;;;;;;21.83;19.73;;;12.80;1.00;;;;;;5135100;27;20442;-75
2023/10/25 04:00:59;;;;;;;20.93;18.93;;;12.80;1.00;;;;;;5152893;27;20543;-74
2023/10/25 04:03:26;;;;;;;20.33;18.23;;;12.90;1.00;;;;;;5135994;27;20462;-76
2023/10/25 04:05:53;;;;;;;20.30;18.30;;;12.80;1.00;;;;;;5133812;27;20489;-76
2023/10/25 04:08:20;;;;;;;19.03;17.17;;;12.70;1.00;;;;;;5154419;27;20485;-74
2023/10/25 04:10:51;;;;;;;20.27;18.13;;;12.70;1.00;;;;;;5155559;27;20461;-74
2023/10/25 04:13:19;;;;;;;20.73;18.33;;;12.70;1.00;;;;;;5155749;27;20451;-75
2023/10/25 04:15:55;;;;;;;19.60;17.50;;;12.60;1.00;;;;;;5148127;27;20480;-74
2023/10/25 04:18:23;;;;;;;18.77;16.87;;;12.60;1.00;;;;;;5137467;27;20503;-75
2023/10/25 04:20:50;;;;;;;18.83;16.90;;;12.60;1.00;;;;;;5152279;27;20561;-73
2023/10/25 04:23:17;;;;;;;19.43;17.40;;;12.50;1.00;;;;;;5127570;27;21016;-75
2023/10/25 04:25:44;;;;;;;20.10;18.10;;;12.50;1.00;;;;;;5132906;27;20455;-74
2023/10/25 04:28:11;;;;;;;18.60;16.80;;;12.60;1.00;;;;;;5153077;27;20473;-75
2023/10/25 04:30:38;;;;;;;18.57;16.77;;;12.60;1.00;;;;;;5143786;27;20463;-76
2023/10/25 04:33:07;;;;;;;19.57;17.57;;;12.50;1.00;;;;;;5141212;27;20459;-74
2023/10/25 04:35:34;;;;;;;16.93;15.40;;;12.50;1.00;;;;;;5155266;27;20442;-75
2023/10/25 04:38:02;;;;;;;18.27;16.30;;;12.40;1.00;;;;;;5150896;27;20514;-74
2023/10/25 04:40:32;;;;;;;16.30;14.60;;;12.40;1.00;;;;;;5136514;27;21294;-74
2023/10/25 04:43:00;;;;;;;17.03;15.33;;;12.40;1.00;;;;;;5148262;27;20454;-76
2023/10/25 04:45:28;;;;;;;16.43;14.83;;;12.50;1.00;;;;;;5131974;27;20474;-74
2023/10/25 04:47:56;;;;;;;18.90;17.00;;;12.40;1.00;;;;;;5137380;27;20457;-73
2023/10/25 04:50:24;;;;;;;17.07;15.40;;;12.40;1.00;;;;;;5129682;27;20547;-74
2023/10/25 04:52:51;;;;;;;20.87;18.77;;;12.50;1.00;;;;;;5139738;27;20471;-75
2023/10/25 04:55:18;;;;;;;18.60;16.83;;;12.40;1.00;;;;;;5137038;27;20563;-76
2023/10/25 04:57:45;;;;;;;19.37;17.57;;;12.40;1.00;;;;;;5149846;27;20541;-79
2023/10/25 05:00:12;;;;;;;19.87;17.30;;;12.40;1.00;;;;;;5150291;27;20526;-74
2023/10/25 05:02:40;;;;;;;17.90;16.20;;;12.30;1.00;;;;;;5143149;27;20573;-74
2023/10/25 05:05:08;;;;;;;20.70;18.57;;;12.30;1.00;;;;;;5149803;27;20497;-75
2023/10/25 05:07:38;;;;;;;19.50;17.70;;;12.30;1.00;;;;;;5148874;27;20417;-74
2023/10/25 05:10:06;;;;;;;18.43;16.63;;;12.20;1.00;;;;;;5129326;27;20946;-74
2023/10/25 05:12:38;;;;;;;18.53;16.63;;;12.10;1.00;;;;;;5134756;27;21109;-76
2023/10/25 05:15:07;;;;;;;18.60;16.70;;;12.10;1.00;;;;;;5142488;27;21180;-75
2023/10/25 05:17:34;;;;;;;19.23;17.23;;;12.00;1.00;;;;;;5144592;27;20560;-74
2023/10/25 05:20:02;;;;;;;18.60;16.70;;;12.00;1.00;;;;;;5134550;27;20479;-75
2023/10/25 05:22:30;;;;;;;20.57;18.57;;;11.90;1.00;;;;;;5152498;27;20479;-78
2023/10/25 05:24:59;;;;;;;20.10;18.20;;;11.90;1.00;;;;;;5148831;27;20610;-78
2023/10/25 05:27:27;;;;;;;19.90;17.97;;;11.80;1.00;;;;;;5126249;27;20939;-76
2023/10/25 05:29:54;;;;;;;20.90;18.90;;;11.70;1.00;;;;;;5147740;27;20467;-75
2023/10/25 05:32:22;;;;;;;22.43;20.27;;;11.70;1.00;;;;;;5143847;27;20515;-76
2023/10/25 05:34:50;;;;;;;19.37;17.23;;;11.70;1.00;;;;;;5129752;27;20890;-74
2023/10/25 05:37:18;;;;;;;18.97;17.13;;;11.60;1.00;;;;;;5142255;27;20452;-78
2023/10/25 05:39:47;;;;;;;20.70;18.57;;;11.60;1.00;;;;;;5141785;27;20453;-76
2023/10/25 05:42:19;;;;;;;20.80;18.70;;;11.60;1.00;;;;;;5126626;27;20525;-76
2023/10/25 05:44:47;;;;;;;19.60;17.60;;;11.50;1.00;;;;;;5129293;27;20469;-78
2023/10/25 05:47:14;;;;;;;21.57;19.23;;;11.50;1.00;;;;;;5141325;27;20455;-77
2023/10/25 05:49:42;;;;;;;21.00;18.80;;;11.50;1.00;;;;;;5147533;27;20488;-76
2023/10/25 05:52:10;;;;;;;34.30;28.43;;;11.50;1.00;;;;;;5147222;27;20479;-75
2023/10/25 05:54:38;;;;;;;20.97;18.77;;;11.60;1.00;;;;;;5140053;27;20483;-76
2023/10/25 05:57:09;;;;;;;22.43;20.00;;;11.50;1.00;;;;;;5138352;27;20461;-76
2023/10/25 05:59:38;;;;;;;22.60;20.30;;;11.50;1.00;;;;;;5124775;27;21659;-77
2023/10/25 06:02:10;;;;;;;21.83;19.50;;;11.50;1.00;;;;;;5128761;27;20662;-77
2023/10/25 06:04:38;;;;;;;20.50;18.50;;;11.50;1.00;;;;;;5129024;27;20483;-76
2023/10/25 06:07:07;;;;;;;21.53;19.33;;;11.50;1.00;;;;;;5132714;27;20460;-76
2023/10/25 06:09:35;;;;;;;21.50;19.10;;;11.50;1.00;;;;;;5125265;27;20972;-75
2023/10/25 06:12:02;;;;;;;21.23;18.93;;;11.60;1.00;;;;;;5128118;27;20468;-75
2023/10/25 06:14:31;;;;;;;20.00;18.00;;;11.60;1.00;;;;;;5145375;27;20475;-77
2023/10/25 06:16:59;;;;;;;22.40;20.03;;;11.50;1.00;;;;;;5137964;27;20465;-78
2023/10/25 06:19:27;;;;;;;19.13;17.10;;;11.60;1.00;;;;;;5129898;27;20964;-77
2023/10/25 06:21:54;;;;;;;21.40;19.30;;;11.60;1.00;;;;;;5139112;27;20472;-76
2023/10/25 06:24:21;;;;;;;21.10;18.90;;;11.70;1.00;;;;;;5124986;27;20469;-77
2023/10/25 06:26:48;;;;;;;22.10;19.80;;;11.70;1.00;;;;;;5128751;27;21324;-76
2023/10/25 06:29:15;;;;;;;19.80;17.73;;;11.70;1.00;;;;;;5127971;27;20477;-77
2023/10/25 06:31:44;;;;;;;18.83;16.83;;;11.80;1.00;;;;;;5121906;27;20539;-73
2023/10/25 06:34:13;;;;;;;20.83;18.10;;;11.80;1.00;;;;;;5144324;27;20545;-72
2023/10/25 06:36:43;;;;;;;21.87;18.60;;;11.70;1.00;;;;;;5138303;27;21356;-70
2023/10/25 06:39:10;;;;;;;21.37;18.30;;;11.80;1.00;;;;;;5127769;27;20464;-70
2023/10/25 06:41:38;;;;;;;21.17;19.07;;;11.80;1.00;;;;;;5126469;27;20601;-72
2023/10/25 06:44:06;;;;;;;22.47;20.07;;;11.90;1.00;;;;;;5123882;27;20555;-71
2023/10/25 06:46:33;;;;;;;19.80;17.87;;;11.90;1.00;;;;;;5122327;27;20515;-74
2023/10/25 06:49:01;;;;;;;18.60;16.47;;;11.90;1.00;;;;;;5123727;27;20543;-72
2023/10/25 06:51:30;;;;;;;20.87;18.80;;;12.00;1.00;;;;;;5125231;27;20526;-74
2023/10/25 06:53:58;;;;;;;20.00;18.00;;;12.00;1.00;;;;;;5125370;27;20569;-70
2023/10/25 06:56:26;;;;;;;21.47;19.17;;;12.10;1.00;;;;;;5129032;27;20457;-71
2023/10/25 06:58:53;;;;;;;19.43;17.43;;;12.00;1.00;;;;;;5148703;27;20995;-71
2023/10/25 07:01:24;;;;;;;21.07;18.73;;;12.10;1.00;;;;;;5146667;27;20543;-72
2023/10/25 07:03:53;;;;;;;20.60;18.50;;;12.20;1.00;;;;;;5129421;27;20551;-71
2023/10/25 07:06:20;;;;;;;20.97;18.87;;;12.30;1.00;;;;;;5149635;27;21310;-70
2023/10/25 07:08:50;;;;;;;25.70;23.00;;;12.30;1.00;;;;;;5144335;27;20456;-72
2023/10/25 07:11:17;;;;;;;21.73;19.53;;;12.40;1.00;;;;;;5143301;27;20534;-71
2023/10/25 07:13:44;;;;;;;24.53;22.00;;;12.40;1.00;;;;;;5133319;27;20575;-71
2023/10/25 07:16:11;;;;;;;24.33;21.93;;;12.50;1.00;;;;;;5146510;27;20453;-71
2023/10/25 07:18:38;;;;;;;26.77;22.07;;;12.50;1.00;;;;;;5126834;27;21001;-71
2023/10/25 07:21:05;;;;;;;23.10;20.63;;;12.50;1.00;;;;;;5128613;27;20585;-73
2023/10/25 07:23:32;;;;;;;25.80;21.90;;;12.50;1.00;;;;;;5132781;27;20559;-70
2023/10/25 07:26:00;;;;;;;26.30;23.50;;;12.60;1.00;;;;;;5127488;27;20834;-74
2023/10/25 07:28:27;;;;;;;28.03;22.10;;;12.60;1.00;;;;;;5126508;27;20522;-73
2023/10/25 07:30:54;;;;;;;25.43;22.83;;;12.60;1.00;;;;;;5125313;27;20449;-73
2023/10/25 07:33:22;;;;;;;26.93;22.40;;;12.60;1.00;;;;;;5134146;27;20530;-73
2023/10/25 07:35:49;;;;;;;24.10;21.50;;;12.70;1.00;;;;;;5127740;27;20453;-73
2023/10/25 07:38:16;;;;;;;24.93;22.37;;;12.80;1.00;;;;;;5137805;27;20491;-72
2023/10/25 07:40:43;;;;;;;24.60;22.10;;;12.90;1.00;;;;;;5131291;27;20533;-74
2023/10/25 07:43:11;;;;;;;24.87;22.07;;;13.00;1.00;;;;;;5136050;27;20499;-76
2023/10/25 07:45:38;;;;;;;26.40;23.43;;;12.90;1.00;;;;;;5126460;27;20549;-75
2023/10/25 07:48:06;;;;;;;25.20;22.57;;;13.00;1.00;;;;;;5125734;27;21354;-77
2023/10/25 07:50:35;;;;;;;27.33;23.93;;;13.00;1.00;;;;;;5125274;27;20986;-77
2023/10/25 07:53:02;;;;;;;23.50;20.93;;;13.00;1.00;;;;;;5126342;27;22393;-75
2023/10/25 07:55:29;;;;;;;23.63;21.23;;;13.00;1.00;;;;;;5131654;27;20461;-77
2023/10/25 07:57:56;;;;;;;23.73;20.90;;;13.00;1.00;;;;;;5152189;27;20457;-77
2023/10/25 08:00:24;;;;;;;23.20;20.70;;;13.00;1.00;;;;;;5141069;27;20553;-77
2023/10/25 08:02:51;;;;;;;25.17;22.37;;;13.00;1.00;;;;;;5130806;27;20553;-77
2023/10/25 08:05:18;;;;;;;29.17;22.40;;;13.00;1.00;;;;;;5131534;27;20532;-77
2023/10/25 08:07:47;;;;;;;22.00;18.90;;;13.10;1.00;;;;;;5129250;27;20462;-77
2023/10/25 08:10:14;;;;;;;25.87;21.60;;;13.20;1.00;;;;;;5137070;27;20448;-76
2023/10/25 08:12:41;;;;;;;22.00;19.30;;;13.40;1.00;;;;;;5138524;27;20467;-77
2023/10/25 08:15:09;;;;;;;29.50;22.13;;;13.60;1.00;;;;;;5132287;27;20527;-77
2023/10/25 08:17:37;;;;;;;24.90;21.03;;;13.70;1.00;;;;;;5132576;27;20458;-76
2023/10/25 08:20:06;;;;;;;23.60;21.03;;;13.50;1.00;;;;;;5151710;27;20453;-76
2023/10/25 08:22:33;;;;;;;22.70;20.43;;;13.60;1.00;;;;;;5133587;27;20553;-76
2023/10/25 08:25:00;;;;;;;25.00;20.47;;;13.60;1.00;;;;;;5138595;27;20964;-76
2023/10/25 08:27:27;;;;;;;21.23;19.03;;;13.70;1.00;;;;;;5148056;27;20461;-77
2023/10/25 08:29:56;;;;;;;21.80;19.40;;;13.80;1.00;;;;;;5153540;27;20454;-77
2023/10/25 08:32:22;;;;;;;21.73;19.57;;;13.90;1.00;;;;;;5153582;27;20469;-77
2023/10/25 08:34:51;;;;;;;30.70;19.57;;;14.00;1.00;;;;;;5150183;27;20544;-77
2023/10/25 08:37:18;;;;;;;21.83;18.97;;;14.10;1.00;;;;;;5130249;27;20462;-78
2023/10/25 08:39:45;;;;;;;19.83;17.73;;;14.00;1.00;;;;;;5133126;27;20467;-77
2023/10/25 08:42:13;;;;;;;22.40;17.50;;;14.10;1.00;;;;;;5122603;27;20465;-78
2023/10/25 08:44:41;;;;;;;23.93;19.03;;;14.10;1.00;;;;;;5147701;27;20455;-77
2023/10/25 08:47:11;;;;;;;20.23;18.20;;;14.10;1.00;;;;;;5129083;27;20548;-77
2023/10/25 08:49:38;;;;;;;19.53;17.60;;;14.20;1.00;;;;;;5136396;27;20503;-79
2023/10/25 08:52:08;;;;;;;22.30;18.67;;;14.20;1.00;;;;;;5138750;27;20476;-71
2023/10/25 08:54:36;;;;;;;19.13;17.20;;;14.40;1.00;;;;;;5129154;27;20456;-71
2023/10/25 08:57:07;;;;;;;25.83;20.20;;;14.40;1.00;;;;;;5127695;27;20465;-70
2023/10/25 08:59:42;;;;;;;22.63;17.53;;;14.50;1.00;;;;;;5128694;27;21068;-71
2023/10/25 09:02:11;;;;;;;23.53;17.70;;;14.60;1.00;;;;;;5128307;27;20971;-70
2023/10/25 09:04:38;;;;;;;19.93;16.53;;;14.70;1.00;;;;;;5121722;27;20460;-70
2023/10/25 09:07:29;;;;;;;18.97;17.13;;;14.80;1.00;;;;;;5135628;27;20528;-70
2023/10/25 09:09:56;;;;;;;19.30;16.20;;;15.00;1.00;;;;;;5130463;27;20602;-70
2023/10/25 09:12:24;;;;;;;20.40;18.30;;;15.00;1.00;;;;;;5126842;27;20516;-72
2023/10/25 09:14:52;;;;;;;18.73;16.90;;;14.90;1.00;;;;;;5124636;27;20829;-74
2023/10/25 09:17:19;;;;;;;19.60;17.80;;;14.90;1.00;;;;;;5130128;27;20489;-70
2023/10/25 09:19:48;;;;;;;21.40;19.17;;;15.00;1.00;;;;;;5127823;27;20550;-69
2023/10/25 09:22:25;;;;;;;19.97;17.80;;;15.00;1.00;;;;;;5139983;27;20546;-69
2023/10/25 09:24:54;;;;;;;22.53;18.60;;;15.00;1.00;;;;;;5148480;27;20508;-73
2023/10/25 09:27:22;;;;;;;19.63;16.67;;;14.90;1.00;;;;;;5145066;27;20454;-71
2023/10/25 09:29:50;;;;;;;19.10;17.07;;;14.80;1.00;;;;;;5130456;27;20873;-72
2023/10/25 09:32:19;;;;;;;21.33;18.67;;;14.70;1.00;;;;;;5137256;27;20435;-70
2023/10/25 09:34:46;;;;;;;22.20;17.10;;;14.70;1.00;;;;;;5148928;27;20954;-74
2023/10/25 09:37:13;;;;;;;18.50;16.60;;;14.70;1.00;;;;;;5125904;27;20450;-70
2023/10/25 09:39:42;;;;;;;21.97;18.50;;;14.70;1.00;;;;;;5128102;27;20500;-72
2023/10/25 09:42:11;;;;;;;22.60;17.87;;;14.80;1.00;;;;;;5129234;27;20469;-71
2023/10/25 09:44:45;;;;;;;24.90;17.30;;;14.80;1.00;;;;;;5137887;27;20508;-72
2023/10/25 09:47:13;;;;;;;18.03;16.27;;;14.90;1.00;;;;;;5148501;27;20582;-72
2023/10/25 09:49:44;;;;;;;18.97;17.07;;;15.20;1.00;;;;;;5124672;27;20475;-70
2023/10/25 09:52:18;;;;;;;18.53;16.53;;;15.20;1.00;;;;;;5150880;27;20505;-70
2023/10/25 09:54:51;;;;;;;17.80;16.13;;;15.30;1.00;;;;;;5135543;27;20456;-68
2023/10/25 09:57:20;;;;;;;16.37;14.77;;;15.30;1.00;;;;;;5143328;27;20463;-69
2023/10/25 09:59:47;;;;;;;17.27;15.57;;;15.40;1.00;;;;;;5140183;27;20500;-70
2023/10/25 10:02:20;;;;;;;21.87;17.30;;;15.40;1.00;;;;;;5138883;27;20547;-75
2023/10/25 10:04:53;;;;;;;18.70;16.50;;;15.60;1.00;;;;;;5131400;27;20465;-74
2023/10/25 10:07:32;;;;;;;16.87;15.17;;;15.80;1.00;;;;;;5135252;27;20503;-76
2023/10/25 10:10:12;;;;;;;17.77;16.07;;;15.70;1.00;;;;;;5132786;27;20457;-74
2023/10/25 10:12:39;;;;;;;17.30;15.53;;;15.80;1.00;;;;;;5132317;27;20467;-77
2023/10/25 10:15:07;;;;;;;17.87;16.03;;;16.10;1.00;;;;;;5130383;27;20459;-75
2023/10/25 10:17:35;;;;;;;16.70;15.17;;;16.00;1.00;;;;;;5130061;27;20494;-76
2023/10/25 10:20:06;;;;;;;15.80;14.03;;;15.90;1.00;;;;;;5132815;27;20464;-76
2023/10/25 10:22:33;;;;;;;15.93;13.03;;;15.90;1.00;;;;;;5132287;27;21324;-77
2023/10/25 10:25:03;;;;;;;15.33;13.73;;;16.10;1.00;;;;;;5131977;27;20453;-76
2023/10/25 10:28:05;;;;;;;13.87;12.67;;;16.30;1.00;;;;;;5128699;27;20441;-78
2023/10/25 10:30:35;;;;;;;13.17;11.87;;;16.40;1.00;;;;;;5126433;27;20491;-73
2023/10/25 10:33:04;;;;;;;13.50;12.20;;;16.50;1.00;;;;;;5144844;27;20471;-74
2023/10/25 10:35:33;;;;;;;13.00;11.80;;;16.50;1.00;;;;;;5136031;27;20457;-76
2023/10/25 10:38:03;;;;;;;11.10;10.10;;;16.60;1.00;;;;;;5150137;27;20463;-73
2023/10/25 10:40:32;;;;;;;13.30;12.03;;;16.60;1.00;;;;;;5152240;27;20797;-74
2023/10/25 10:42:59;;;;;;;11.17;10.17;;;16.50;1.00;;;;;;5149410;27;20452;-74
2023/10/25 10:45:31;;;;;;;10.10;9.20;;;16.70;1.00;;;;;;5144065;27;20898;-75
2023/10/25 10:48:10;;;;;;;10.97;9.80;;;16.90;1.00;;;;;;5146649;27;20455;-75
2023/10/25 10:50:42;;;;;;;10.80;9.70;;;17.00;1.00;;;;;;5147918;27;20453;-74
2023/10/25 10:53:09;;;;;;;10.97;9.97;;;17.10;1.00;;;;;;5139883;27;20507;-75
2023/10/25 10:55:38;;;;;;;9.60;8.60;;;17.60;1.00;;;;;;5140442;27;20465;-71
2023/10/25 10:58:05;;;;;;;10.87;9.87;;;18.40;1.00;;;;;;5144774;27;20552;-75
2023/10/25 11:00:32;;;;;;;9.87;8.97;;;18.70;1.00;;;;;;5129052;27;20477;-73
2023/10/25 11:03:02;;;;;;;9.00;8.20;;;18.70;1.00;;;;;;5126937;27;20628;-73
2023/10/25 11:05:31;;;;;;;8.73;8.03;;;18.80;1.00;;;;;;5133496;27;20484;-75
2023/10/25 11:07:58;;;;;;;9.97;8.80;;;18.60;1.00;;;;;;5127541;27;21018;-73
2023/10/25 11:10:25;;;;;;;10.63;8.53;;;18.30;1.00;;;;;;5127603;27;20464;-74
2023/10/25 11:12:58;;;;;;;8.60;7.90;;;18.10;1.00;;;;;;5129892;27;20557;-73
2023/10/25 11:15:25;;;;;;;8.03;7.43;;;18.00;1.00;;;;;;5126207;27;20454;-74
2023/10/25 11:17:52;;;;;;;8.83;7.20;;;18.10;1.00;;;;;;5139995;27;20471;-73
2023/10/25 11:20:20;;;;;;;8.40;7.60;;;18.30;1.00;;;;;;5129397;27;20487;-75
2023/10/25 11:22:47;;;;;;;10.77;7.13;;;18.50;1.00;;;;;;5126297;27;20478;-76
2023/10/25 11:25:21;;;;;;;7.03;6.10;;;18.70;1.00;;;;;;5125752;27;21017;-75
2023/10/25 11:27:48;;;;;;;6.73;6.17;;;19.00;1.00;;;;;;5135741;27;20470;-74
2023/10/25 11:30:19;;;;;;;10.80;7.40;;;19.50;1.00;;;;;;5135549;27;20953;-76
2023/10/25 11:32:46;;;;;;;7.80;7.10;;;20.00;1.00;;;;;;5130943;27;20468;-74
2023/10/25 11:35:22;;;;;;;6.97;6.27;;;20.20;1.00;;;;;;5131758;27;21851;-74
2023/10/25 11:37:51;;;;;;;11.93;6.73;;;19.90;1.00;;;;;;5129591;27;20585;-74
2023/10/25 11:40:18;;;;;;;7.70;6.90;;;19.50;1.00;;;;;;5127186;27;21030;-73
2023/10/25 11:42:45;;;;;;;7.77;6.97;;;19.10;1.00;;;;;;5135257;27;20476;-77
2023/10/25 11:45:12;;;;;;;10.63;9.53;;;18.60;1.00;;;;;;5140209;27;20499;-73
2023/10/25 11:47:40;;;;;;;6.57;6.07;;;18.90;1.00;;;;;;5152794;27;20948;-74
2023/10/25 11:50:09;;;;;;;5.30;4.90;;;19.80;1.00;;;;;;5131524;27;21514;-73
2023/10/25 11:52:36;;;;;;;8.10;6.93;;;20.20;1.00;;;;;;5130435;27;20891;-73
2023/10/25 11:55:03;;;;;;;7.03;6.43;;;20.20;1.00;;;;;;5126270;27;20476;-73
2023/10/25 11:57:31;;;;;;;8.63;7.07;;;19.70;1.00;;;;;;5129847;27;20467;-74
2023/10/25 11:59:58;;;;;;;9.50;7.30;;;19.30;1.00;;;;;;5150323;27;20977;-73
2023/10/25 12:02:26;;;;;;;6.70;6.00;;;18.70;1.00;;;;;;5142529;27;20506;-74
2023/10/25 12:04:56;;;;;;;8.60;6.53;;;18.10;1.00;;;;;;5131088;27;20471;-74
2023/10/25 12:07:25;;;;;;;7.07;6.40;;;18.10;1.00;;;;;;5131295;27;21002;-74
2023/10/25 12:09:53;;;;;;;7.93;5.27;;;18.20;1.00;;;;;;5127949;27;20458;-73
2023/10/25 12:12:22;;;;;;;6.60;5.50;;;18.00;1.00;;;;;;5128767;27;20469;-74
2023/10/25 12:14:49;;;;;;;6.53;5.83;;;17.70;1.00;;;;;;5131580;27;21000;-75
2023/10/25 12:17:16;;;;;;;7.13;6.00;;;17.40;1.00;;;;;;5129227;27;20532;-74
2023/10/25 12:19:43;;;;;;;7.37;6.77;;;17.30;1.00;;;;;;5129827;27;20425;-72
2023/10/25 12:22:13;;;;;;;9.00;6.90;;;17.00;1.00;;;;;;5129592;27;20497;-73
2023/10/25 12:24:43;;;;;;;13.40;8.13;;;17.10;1.00;;;;;;5130281;27;21230;-71
2023/10/25 12:27:11;;;;;;;8.07;7.40;;;17.70;1.00;;;;;;5130900;27;20496;-71
2023/10/25 12:29:38;;;;;;;8.90;7.77;;;18.10;1.00;;;;;;5128276;27;20508;-70
2023/10/25 12:32:05;;;;;;;8.10;7.40;;;18.50;1.00;;;;;;5129217;27;20467;-71
2023/10/25 12:34:33;;;;;;;9.77;7.73;;;18.70;1.00;;;;;;5135064;27;20933;-70
2023/10/25 12:37:00;;;;;;;7.63;6.93;;;18.90;1.00;;;;;;5132067;27;20554;-70
2023/10/25 12:39:28;;;;;;;8.03;7.20;;;19.60;1.00;;;;;;5133864;27;20459;-70
2023/10/25 12:41:55;;;;;;;8.47;6.70;;;20.10;1.00;;;;;;5131612;27;20472;-70
2023/10/25 12:44:22;;;;;;;7.27;6.57;;;20.40;1.00;;;;;;5133305;27;20514;-70
2023/10/25 12:46:49;;;;;;;7.60;6.27;;;20.80;1.00;;;;;;5131819;27;20520;-70